METAR Data
IDs: Format: Raw Decoded Include TAF

Data at: 1241 UTC 07 Jul 2020

KCQW 071235Z AUTO 09004KT 9SM OVC004 25/23 A3003 RMK AO2
KCQW 071215Z AUTO 09004KT 4SM BR OVC003 24/23 A3003 RMK AO2
KCQW 071155Z AUTO 08004KT 4SM BR OVC003 24/23 A3004 RMK AO2 LTG DSNT S
KCQW 071135Z AUTO 08004KT 4SM BR OVC003 24/23 A3004 RMK AO2
KCQW 071115Z AUTO 08004KT 4SM BR OVC003 24/23 A3004 RMK AO2
KCQW 071055Z AUTO 09003KT 4SM BR OVC003 24/23 A3004 RMK AO2
KCQW 071035Z AUTO 00000KT 4SM BR OVC003 23/23 A3004 RMK AO2 LTG DSNT S
KCQW 071015Z AUTO 06003KT 4SM BR OVC003 23/23 A3004 RMK AO2
KCQW 070955Z AUTO 00000KT 2 1/2SM BR OVC003 23/23 A3003 RMK AO2
KCQW 070935Z AUTO 00000KT 5SM BR OVC004 23/23 A3003 RMK AO2
KCQW 070915Z AUTO 00000KT 6SM BR OVC004 23/23 A3003 RMK AO2 LTG DSNT S
KCQW 070855Z AUTO 00000KT 6SM BR OVC004 23/23 A3002 RMK AO2
KCQW 070835Z AUTO 00000KT 3SM BR OVC006 23/23 A3002 RMK AO2 LTG DSNT S
KCQW 070815Z AUTO 00000KT 3/4SM BR OVC007 23/23 A3003 RMK AO2 LTG DSNT S
KCQW 070755Z AUTO 00000KT 1/2SM BR BKN006 BKN022 OVC055 23/23 A3004 RMK AO2
KCQW 070735Z AUTO 00000KT 2 1/2SM BR FEW002 FEW095 SCT120 23/23 A3004 RMK AO2
KCQW 070715Z AUTO 00000KT 1/2SM FG SCT003 OVC110 23/23 A3004 RMK AO2 LTG DSNT S AND SW
KCQW 070655Z AUTO 00000KT 3/4SM BR BKN002 BKN027 BKN110 23/23 A3004 RMK AO2
KCQW 070635Z AUTO 00000KT 2 1/2SM BR CLR 24/23 A3005 RMK AO2
KCQW 070615Z AUTO 00000KT 7SM FEW046 23/23 A3005 RMK AO2
KCQW 070555Z AUTO 00000KT 7SM SCT019 SCT033 BKN044 24/23 A3006 RMK AO2
KCQW 070535Z AUTO 00000KT 10SM BKN020 BKN029 BKN038 24/23 A3006 RMK AO2
KCQW 070515Z AUTO 00000KT 10SM BKN020 OVC030 24/24 A3006 RMK AO2
KCQW 070455Z AUTO 00000KT 10SM BKN019 OVC031 24/24 A3007 RMK AO2
KCQW 070435Z AUTO 00000KT 8SM OVC019 24/24 A3007 RMK AO2
KCQW 070415Z AUTO 00000KT 9SM OVC021 24/24 A3007 RMK AO2
KCQW 070355Z AUTO 00000KT 10SM FEW006 SCT014 BKN021 24/24 A3007 RMK AO2
KCQW 070335Z AUTO 26004KT 10SM FEW006 BKN020 OVC042 24/23 A3006 RMK AO2
KCQW 070315Z AUTO 05003KT 10SM FEW023 SCT027 OVC041 24/23 A3006 RMK AO2
KCQW 070255Z AUTO 00000KT 10SM SCT027 BKN032 OVC039 24/23 A3006 RMK AO2
KCQW 070235Z AUTO 00000KT 10SM FEW031 BKN039 BKN045 24/23 A3006 RMK AO2
KCQW 070215Z AUTO 00000KT 10SM BKN044 BKN050 24/23 A3005 RMK AO2
KCQW 070155Z AUTO 00000KT 10SM BKN044 OVC050 24/23 A3005 RMK AO2
KCQW 070135Z AUTO 00000KT 10SM BKN042 OVC050 24/23 A3004 RMK AO2
KCQW 070115Z AUTO 00000KT 10SM BKN039 25/23 A3005 RMK AO2
KCQW 070055Z AUTO 00000KT 10SM CLR 25/23 A3005 RMK AO2
KCQW 070035Z AUTO 00000KT 10SM CLR 25/23 A3005 RMK AO2
KCQW 070015Z AUTO 00000KT 10SM CLR 25/24 A3004 RMK AO2
KCQW 062355Z AUTO 00000KT 10SM FEW028 26/23 A3005 RMK AO2
KCQW 062335Z AUTO 00000KT 10SM SCT028 26/23 A3005 RMK AO2
KCQW 062315Z AUTO 00000KT 10SM CLR 27/23 A3005 RMK AO2 LTG DSNT S
KCQW 062255Z AUTO 00000KT 10SM CLR 27/23 A3004 RMK AO2
KCQW 062235Z AUTO 00000KT 10SM CLR 27/23 A3004 RMK AO2
KCQW 062215Z AUTO 13004KT 10SM CLR 27/23 A3004 RMK AO2
KCQW 062155Z AUTO 00000KT 10SM CLR 27/23 A3004 RMK AO2
KCQW 062135Z AUTO 00000KT 10SM CLR 27/23 A3004 RMK AO2
KCQW 062115Z AUTO 00000KT 10SM CLR 26/23 A3005 RMK AO2
KCQW 062055Z AUTO 20004KT 10SM CLR 26/22 A3005 RMK AO2
KCQW 062035Z AUTO 17004KT 10SM CLR 26/22 A3005 RMK AO2
KCQW 062015Z AUTO 00000KT 10SM CLR 26/22 A3005 RMK AO2
KCQW 061955Z AUTO VRB04KT 10SM CLR 25/22 A3005 RMK AO2
KCQW 061935Z AUTO VRB04KT 10SM CLR 25/21 A3006 RMK AO2
KCQW 061915Z AUTO 18003KT 10SM CLR 25/21 A3006 RMK AO2
KCQW 061855Z AUTO 20004KT 10SM CLR 24/21 A3008 RMK AO2
KCQW 061835Z AUTO 19004KT 10SM CLR 25/21 A3008 RMK AO2 LTG DSNT W
KCQW 061815Z AUTO 17004KT 10SM CLR 25/21 A3007 RMK AO2 LTG DSNT S-W
KCQW 061755Z AUTO 20005KT 10SM VCTS FEW043 SCT050 24/21 A3008 RMK AO2 LTG DSNT SW-NW
KCQW 061735Z AUTO 19008KT 10SM VCTS FEW030 SCT037 BKN043 24/21 A3008 RMK AO2 LTG DSNT SW-NW
KCQW 061715Z AUTO 18012G20KT 10SM VCTS BKN034 BKN045 OVC075 27/21 A3009 RMK AO2 LTG DSNT S AND SW
KCQW 061655Z AUTO 13006G13KT 10SM FEW036 SCT060 BKN075 31/22 A3007 RMK AO2 LTG DSNT S
KCQW 061635Z AUTO 09008KT 070V130 10SM FEW032 31/23 A3007 RMK AO2 LTG DSNT S
KCQW 061615Z AUTO 10009KT 10SM SCT032 30/22 A3008 RMK AO2
KCQW 061555Z AUTO 11007KT 10SM CLR 31/22 A3008 RMK AO2 LTG DSNT S AND SW
KCQW 061535Z AUTO 13006KT 10SM FEW028 FEW039 FEW055 30/22 A3008 RMK AO2 LTG DSNT S
KCQW 061515Z AUTO 09008KT 10SM SCT029 SCT039 30/22 A3009 RMK AO2
KCQW 061455Z AUTO 15005KT 10SM CLR 29/22 A3008 RMK AO2 LTG DSNT S
KCQW 061435Z AUTO 13004G10KT 10SM CLR 29/22 A3008 RMK AO2
KCQW 061415Z AUTO 10004KT 10SM VCTS FEW022 29/22 A3008 RMK AO2 LTG DSNT S
KCQW 061355Z AUTO VRB06KT 10SM SCT021 28/22 A3008 RMK AO2
KCQW 061335Z AUTO VRB04KT 10SM CLR 28/22 A3008 RMK AO2
KCQW 061315Z AUTO 08003KT 10SM CLR 27/22 A3008 RMK AO2
KCQW 061255Z AUTO 00000KT 10SM CLR 26/22 A3007 RMK AO2
KCQW 061235Z AUTO 00000KT 10SM CLR 25/22 A3007 RMK AO2
KCQW 061155Z AUTO 05004KT 10SM CLR 23/22 A3006 RMK AO2
KCQW 061135Z AUTO 00000KT 7SM CLR 22/21 A3006 RMK AO2
KCQW 061115Z AUTO 00000KT 3SM BR CLR 21/20 A3005 RMK AO2
KCQW 061055Z AUTO 00000KT 2 1/2SM BR CLR 20/20 A3004 RMK AO2
KCQW 061035Z AUTO 00000KT M1/4SM FG VV000 19/19 A3004 RMK AO2
KCQW 061015Z AUTO 00000KT M1/4SM FG VV000 20/19 A3003 RMK AO2
KCQW 060955Z AUTO 00000KT 3/4SM BR VV005 19/19 A3003 RMK AO2
KCQW 060935Z AUTO 00000KT 1 1/2SM BR FEW021 SCT029 19/19 A3003 RMK AO2
KCQW 060915Z AUTO 00000KT 1 1/4SM BR SCT029 19/19 A3002 RMK AO2
KCQW 060855Z AUTO 00000KT 3/4SM BR VV005 20/20 A3001 RMK AO2
KCQW 060835Z AUTO 00000KT 6SM BR CLR 19/19 A3001 RMK AO2
KCQW 060815Z AUTO 00000KT 4SM BR CLR 20/20 A3000 RMK AO2
KCQW 060755Z AUTO 00000KT 8SM CLR 20/19 A3000 RMK AO2
KCQW 060735Z AUTO 00000KT 10SM CLR 21/20 A3001 RMK AO2
KCQW 060715Z AUTO 00000KT 10SM CLR 21/20 A3001 RMK AO2
KCQW 060655Z AUTO 00000KT 10SM CLR 21/20 A3001 RMK AO2
KCQW 060635Z AUTO 00000KT 10SM CLR 21/20 A3002 RMK AO2
KCQW 060615Z AUTO 00000KT 10SM CLR 21/20 A3002 RMK AO2
KCQW 060555Z AUTO 00000KT 10SM CLR 22/20 A3003 RMK AO2
KCQW 060535Z AUTO 00000KT 10SM CLR 22/20 A3004 RMK AO2
KCQW 060515Z AUTO 00000KT 10SM CLR 22/20 A3004 RMK AO2
KCQW 060455Z AUTO 00000KT 10SM CLR 23/20 A3004 RMK AO2
KCQW 060435Z AUTO 00000KT 10SM CLR 24/20 A3004 RMK AO2
KCQW 060415Z AUTO 15003KT 10SM CLR 24/20 A3004 RMK AO2
KCQW 060355Z AUTO 00000KT 10SM CLR 24/20 A3003 RMK AO2
KCQW 060335Z AUTO 00000KT 10SM CLR 24/20 A3003 RMK AO2
KCQW 060315Z AUTO 00000KT 10SM CLR 25/19 A3002 RMK AO2
KCQW 060255Z AUTO 00000KT 10SM CLR 26/19 A3002 RMK AO2
KCQW 060235Z AUTO 17003KT 10SM CLR 26/19 A3000 RMK AO2
KCQW 060215Z AUTO 18005KT 10SM CLR 27/19 A2999 RMK AO2
KCQW 060155Z AUTO 19005KT 10SM CLR 27/19 A2998 RMK AO2
KCQW 060135Z AUTO 19005KT 10SM CLR 27/19 A2998 RMK AO2
KCQW 060115Z AUTO 17004KT 10SM CLR 28/19 A2998 RMK AO2
KCQW 060055Z AUTO 17006KT 10SM CLR 29/19 A2996 RMK AO2